sensor_id;sensor_type;location;lat;lon;timestamp;pressure;altitude;pressure_sealevel;temperature;humidity
68616;BME280;57261;47.504;19.084;2022-07-05T00:02:11;100239.38;;;31.03;46.57
68616;BME280;57261;47.504;19.084;2022-07-05T00:05:11;100241.19;;;30.86;47.23
68616;BME280;57261;47.504;19.084;2022-07-05T00:08:12;100249.16;;;30.94;47.61
68616;BME280;57261;47.504;19.084;2022-07-05T00:11:12;100251.16;;;30.92;47.04
68616;BME280;57261;47.504;19.084;2022-07-05T00:14:13;100253.88;;;31.00;46.17
68616;BME280;57261;47.504;19.084;2022-07-05T00:17:14;100250.13;;;30.54;49.20
68616;BME280;57261;47.504;19.084;2022-07-05T00:20:14;100249.00;;;30.72;48.13
68616;BME280;57261;47.504;19.084;2022-07-05T00:23:15;100260.97;;;30.76;47.16
68616;BME280;57261;47.504;19.084;2022-07-05T00:26:15;100255.66;;;30.84;48.05
68616;BME280;57261;47.504;19.084;2022-07-05T00:29:16;100251.97;;;30.69;48.45
68616;BME280;57261;47.504;19.084;2022-07-05T00:32:17;100239.16;;;30.72;47.47
68616;BME280;57261;47.504;19.084;2022-07-05T00:35:17;100247.66;;;30.60;48.90
68616;BME280;57261;47.504;19.084;2022-07-05T00:38:18;100242.50;;;30.74;47.82
68616;BME280;57261;47.504;19.084;2022-07-05T00:41:18;100232.84;;;30.66;47.01
68616;BME280;57261;47.504;19.084;2022-07-05T00:44:28;100229.06;;;31.00;46.01
68616;BME280;57261;47.504;19.084;2022-07-05T00:47:30;100232.00;;;30.57;48.90
68616;BME280;57261;47.504;19.084;2022-07-05T00:50:31;100214.09;;;30.99;46.88
68616;BME280;57261;47.504;19.084;2022-07-05T00:53:31;100217.25;;;31.10;45.52
68616;BME280;57261;47.504;19.084;2022-07-05T00:56:32;100233.72;;;31.06;46.62
68616;BME280;57261;47.504;19.084;2022-07-05T00:59:33;100229.53;;;30.79;48.10
68616;BME280;57261;47.504;19.084;2022-07-05T01:02:34;100233.88;;;30.96;46.93
68616;BME280;57261;47.504;19.084;2022-07-05T01:05:34;100242.19;;;30.77;47.50
68616;BME280;57261;47.504;19.084;2022-07-05T01:08:38;100237.50;;;30.56;48.89
68616;BME280;57261;47.504;19.084;2022-07-05T01:11:46;100229.53;;;30.87;46.60
68616;BME280;57261;47.504;19.084;2022-07-05T01:14:48;100235.00;;;30.70;47.37
68616;BME280;57261;47.504;19.084;2022-07-05T01:17:51;100235.50;;;30.50;48.92
68616;BME280;57261;47.504;19.084;2022-07-05T01:20:52;100237.84;;;30.11;49.69
68616;BME280;57261;47.504;19.084;2022-07-05T01:23:52;100245.16;;;30.09;49.38
68616;BME280;57261;47.504;19.084;2022-07-05T01:26:53;100235.22;;;30.19;47.15
68616;BME280;57261;47.504;19.084;2022-07-05T01:29:54;100231.16;;;30.49;48.03
68616;BME280;57261;47.504;19.084;2022-07-05T01:32:55;100230.84;;;30.68;47.21
68616;BME280;57261;47.504;19.084;2022-07-05T01:35:59;100232.69;;;30.75;45.94
68616;BME280;57261;47.504;19.084;2022-07-05T01:39:01;100230.84;;;30.68;45.96
68616;BME280;57261;47.504;19.084;2022-07-05T01:42:02;100230.84;;;30.68;45.63
68616;BME280;57261;47.504;19.084;2022-07-05T01:45:04;100229.84;;;30.92;44.32
68616;BME280;57261;47.504;19.084;2022-07-05T01:48:08;100225.41;;;31.01;44.29
68616;BME280;57261;47.504;19.084;2022-07-05T01:51:16;100222.91;;;31.07;44.02
68616;BME280;57261;47.504;19.084;2022-07-05T01:54:19;100224.06;;;31.05;43.99
68616;BME280;57261;47.504;19.084;2022-07-05T01:57:22;100218.06;;;31.11;43.99
68616;BME280;57261;47.504;19.084;2022-07-05T02:00:22;100224.88;;;31.13;43.79
68616;BME280;57261;47.504;19.084;2022-07-05T02:03:26;100211.91;;;31.10;43.94
68616;BME280;57261;47.504;19.084;2022-07-05T02:06:26;100212.91;;;31.09;44.05
68616;BME280;57261;47.504;19.084;2022-07-05T02:09:27;100210.06;;;31.11;44.11
68616;BME280;57261;47.504;19.084;2022-07-05T02:12:27;100209.91;;;31.12;43.94
68616;BME280;57261;47.504;19.084;2022-07-05T02:15:30;100208.25;;;31.11;45.75
68616;BME280;57261;47.504;19.084;2022-07-05T02:18:30;100212.25;;;31.15;43.51
68616;BME280;57261;47.504;19.084;2022-07-05T02:21:31;100207.91;;;31.14;43.76
68616;BME280;57261;47.504;19.084;2022-07-05T02:24:31;100205.91;;;31.08;44.11
68616;BME280;57261;47.504;19.084;2022-07-05T02:27:33;100199.91;;;31.14;43.37
68616;BME280;57261;47.504;19.084;2022-07-05T02:30:33;100206.91;;;31.15;43.28
68616;BME280;57261;47.504;19.084;2022-07-05T02:33:34;100195.25;;;31.08;43.26
68616;BME280;57261;47.504;19.084;2022-07-05T02:36:34;100198.59;;;31.10;43.38
68616;BME280;57261;47.504;19.084;2022-07-05T02:39:34;100187.44;;;31.07;43.30
68616;BME280;57261;47.504;19.084;2022-07-05T02:42:38;100188.44;;;31.06;43.62
68616;BME280;57261;47.504;19.084;2022-07-05T02:45:40;100181.13;;;31.08;43.17
68616;BME280;57261;47.504;19.084;2022-07-05T02:48:41;100187.94;;;31.02;43.58
68616;BME280;57261;47.504;19.084;2022-07-05T02:51:41;100194.25;;;31.09;43.17
68616;BME280;57261;47.504;19.084;2022-07-05T02:54:42;100192.28;;;31.11;43.73
68616;BME280;57261;47.504;19.084;2022-07-05T02:57:42;100188.94;;;31.09;43.19
68616;BME280;57261;47.504;19.084;2022-07-05T03:00:47;100193.28;;;31.02;43.58
68616;BME280;57261;47.504;19.084;2022-07-05T03:03:48;100198.59;;;31.02;43.66
68616;BME280;57261;47.504;19.084;2022-07-05T03:06:50;100190.25;;;31.05;43.92
68616;BME280;57261;47.504;19.084;2022-07-05T03:09:50;100193.59;;;31.07;43.36
68616;BME280;57261;47.504;19.084;2022-07-05T03:12:51;100193.94;;;31.04;43.72
68616;BME280;57261;47.504;19.084;2022-07-05T03:15:51;100192.09;;;31.05;43.76
68616;BME280;57261;47.504;19.084;2022-07-05T03:18:53;100185.94;;;31.04;43.72
68616;BME280;57261;47.504;19.084;2022-07-05T03:21:53;100192.28;;;31.03;43.63
68616;BME280;57261;47.504;19.084;2022-07-05T03:24:56;100194.94;;;31.03;43.72
68616;BME280;57261;47.504;19.084;2022-07-05T03:27:57;100189.13;;;31.00;43.57
68616;BME280;57261;47.504;19.084;2022-07-05T03:30:57;100187.59;;;31.05;43.40
68616;BME280;57261;47.504;19.084;2022-07-05T03:33:58;100178.47;;;31.00;43.41
68616;BME280;57261;47.504;19.084;2022-07-05T03:36:58;100179.59;;;30.97;43.88
68616;BME280;57261;47.504;19.084;2022-07-05T03:39:59;100183.63;;;31.01;43.22
68616;BME280;57261;47.504;19.084;2022-07-05T03:42:59;100192.59;;;31.00;43.87
68616;BME280;57261;47.504;19.084;2022-07-05T03:46:06;100205.38;;;30.97;43.72
68616;BME280;57261;47.504;19.084;2022-07-05T03:49:06;100209.91;;;30.96;43.97
68616;BME280;57261;47.504;19.084;2022-07-05T03:52:07;100216.56;;;31.00;43.96
68616;BME280;57261;47.504;19.084;2022-07-05T03:55:08;100216.75;;;30.99;43.81
68616;BME280;57261;47.504;19.084;2022-07-05T03:58:12;100226.69;;;30.97;45.29
68616;BME280;57261;47.504;19.084;2022-07-05T04:01:12;100225.69;;;30.82;45.80
68616;BME280;57261;47.504;19.084;2022-07-05T04:04:13;100227.34;;;30.83;44.85
68616;BME280;57261;47.504;19.084;2022-07-05T04:07:13;100225.19;;;30.86;43.96
68616;BME280;57261;47.504;19.084;2022-07-05T04:10:14;100218.22;;;30.93;45.77
68616;BME280;57261;47.504;19.084;2022-07-05T04:13:15;100223.38;;;30.71;46.96
68616;BME280;57261;47.504;19.084;2022-07-05T04:16:15;100220.38;;;30.90;44.49
68616;BME280;57261;47.504;19.084;2022-07-05T04:19:16;100224.19;;;30.87;45.31
68616;BME280;57261;47.504;19.084;2022-07-05T04:22:19;100227.53;;;30.97;45.79
68616;BME280;57261;47.504;19.084;2022-07-05T04:25:20;100217.88;;;30.96;43.88
68616;BME280;57261;47.504;19.084;2022-07-05T04:28:21;100227.88;;;30.94;43.64
68616;BME280;57261;47.504;19.084;2022-07-05T04:31:21;100226.06;;;30.95;44.89
68616;BME280;57261;47.504;19.084;2022-07-05T04:34:22;100222.22;;;30.89;46.37
68616;BME280;57261;47.504;19.084;2022-07-05T04:37:22;100215.91;;;30.98;43.84
68616;BME280;57261;47.504;19.084;2022-07-05T04:40:25;100218.88;;;30.95;44.78
68616;BME280;57261;47.504;19.084;2022-07-05T04:43:26;100221.91;;;31.00;45.56
68616;BME280;57261;47.504;19.084;2022-07-05T04:46:26;100214.59;;;31.02;43.64
68616;BME280;57261;47.504;19.084;2022-07-05T04:49:28;100213.09;;;31.00;44.02
68616;BME280;57261;47.504;19.084;2022-07-05T04:52:31;100213.41;;;31.05;43.57
68616;BME280;57261;47.504;19.084;2022-07-05T04:55:32;100208.09;;;31.05;43.90
68616;BME280;57261;47.504;19.084;2022-07-05T04:58:32;100203.09;;;31.02;43.49
68616;BME280;57261;47.504;19.084;2022-07-05T05:01:34;100207.25;;;31.04;43.62
68616;BME280;57261;47.504;19.084;2022-07-05T05:04:35;100203.09;;;31.02;44.20
68616;BME280;57261;47.504;19.084;2022-07-05T05:07:35;100209.75;;;31.06;44.09
68616;BME280;57261;47.504;19.084;2022-07-05T05:10:38;100210.56;;;31.06;43.56
68616;BME280;57261;47.504;19.084;2022-07-05T05:13:41;100205.25;;;31.06;42.99
68616;BME280;57261;47.504;19.084;2022-07-05T05:16:45;100197.41;;;30.97;43.35
68616;BME280;57261;47.504;19.084;2022-07-05T05:19:46;100211.88;;;30.94;43.53
68616;BME280;57261;47.504;19.084;2022-07-05T05:22:47;100201.91;;;30.96;43.65
68616;BME280;57261;47.504;19.084;2022-07-05T05:25:48;100203.09;;;31.02;43.39
68616;BME280;57261;47.504;19.084;2022-07-05T05:28:49;100197.25;;;30.98;43.94
68616;BME280;57261;47.504;19.084;2022-07-05T05:31:50;100193.78;;;31.06;43.58
68616;BME280;57261;47.504;19.084;2022-07-05T05:34:50;100186.78;;;31.05;43.89
68616;BME280;57261;47.504;19.084;2022-07-05T05:37:52;100201.25;;;31.02;43.84
68616;BME280;57261;47.504;19.084;2022-07-05T05:40:53;100196.94;;;31.01;43.87
68616;BME280;57261;47.504;19.084;2022-07-05T05:43:57;100210.75;;;31.05;44.29
68616;BME280;57261;47.504;19.084;2022-07-05T05:46:57;100216.75;;;31.07;43.75
68616;BME280;57261;47.504;19.084;2022-07-05T05:49:57;100215.56;;;31.09;43.77
68616;BME280;57261;47.504;19.084;2022-07-05T05:52:58;100217.75;;;31.14;43.97
68616;BME280;57261;47.504;19.084;2022-07-05T05:55:59;100208.25;;;31.11;43.60
68616;BME280;57261;47.504;19.084;2022-07-05T05:58:59;100215.72;;;31.16;43.92
68616;BME280;57261;47.504;19.084;2022-07-05T06:01:59;100221.22;;;31.22;43.86
68616;BME280;57261;47.504;19.084;2022-07-05T06:05:00;100216.56;;;31.24;43.88
68616;BME280;57261;47.504;19.084;2022-07-05T06:08:02;100230.19;;;31.29;43.58
68616;BME280;57261;47.504;19.084;2022-07-05T06:11:03;100231.38;;;31.35;42.46
68616;BME280;57261;47.504;19.084;2022-07-05T06:14:05;100236.34;;;31.38;42.71
68616;BME280;57261;47.504;19.084;2022-07-05T06:17:06;100237.19;;;31.38;42.53
68616;BME280;57261;47.504;19.084;2022-07-05T06:20:18;100239.69;;;31.40;43.20
68616;BME280;57261;47.504;19.084;2022-07-05T06:23:22;100230.69;;;31.41;42.39
68616;BME280;57261;47.504;19.084;2022-07-05T06:26:23;100239.50;;;31.41;41.99
68616;BME280;57261;47.504;19.084;2022-07-05T06:29:26;100232.19;;;31.35;42.05
68616;BME280;57261;47.504;19.084;2022-07-05T06:32:28;100233.84;;;31.44;42.15
68616;BME280;57261;47.504;19.084;2022-07-05T06:35:31;100232.69;;;31.39;42.26
68616;BME280;57261;47.504;19.084;2022-07-05T06:38:35;100238.88;;;31.31;42.25
68616;BME280;57261;47.504;19.084;2022-07-05T06:41:35;100230.69;;;31.33;42.56
68616;BME280;57261;47.504;19.084;2022-07-05T06:44:36;100229.69;;;31.34;42.20
68616;BME280;57261;47.504;19.084;2022-07-05T06:47:37;100227.53;;;31.29;42.23
68616;BME280;57261;47.504;19.084;2022-07-05T06:50:40;100239.19;;;31.28;42.04
68616;BME280;57261;47.504;19.084;2022-07-05T06:53:41;100241.84;;;31.28;41.93
68616;BME280;57261;47.504;19.084;2022-07-05T06:56:41;100235.53;;;31.29;41.85
68616;BME280;57261;47.504;19.084;2022-07-05T06:59:44;100239.69;;;31.24;41.83
68616;BME280;57261;47.504;19.084;2022-07-05T07:02:45;100237.53;;;31.27;42.10
68616;BME280;57261;47.504;19.084;2022-07-05T07:05:45;100234.38;;;31.24;42.00
68616;BME280;57261;47.504;19.084;2022-07-05T07:08:46;100240.38;;;31.18;42.32
68616;BME280;57261;47.504;19.084;2022-07-05T07:12:05;100227.72;;;31.12;42.00
68616;BME280;57261;47.504;19.084;2022-07-05T07:15:06;100225.38;;;31.17;41.48
68616;BME280;57261;47.504;19.084;2022-07-05T07:18:09;100224.06;;;31.21;42.06
68616;BME280;57261;47.504;19.084;2022-07-05T07:21:10;100221.03;;;31.24;41.93
68616;BME280;57261;47.504;19.084;2022-07-05T07:24:11;100230.88;;;31.31;41.89
68616;BME280;57261;47.504;19.084;2022-07-05T07:27:12;100210.56;;;31.30;41.59
68616;BME280;57261;47.504;19.084;2022-07-05T07:30:15;100215.88;;;31.38;42.12
68616;BME280;57261;47.504;19.084;2022-07-05T07:33:16;100230.00;;;31.47;41.50
68616;BME280;57261;47.504;19.084;2022-07-05T07:36:16;100228.84;;;31.49;41.46
68616;BME280;57261;47.504;19.084;2022-07-05T07:39:17;100224.16;;;31.51;42.34
68616;BME280;57261;47.504;19.084;2022-07-05T07:42:21;100217.19;;;31.58;41.69
68616;BME280;57261;47.504;19.084;2022-07-05T07:45:22;100226.34;;;31.55;41.18
68616;BME280;57261;47.504;19.084;2022-07-05T07:48:22;100220.00;;;31.56;41.59
68616;BME280;57261;47.504;19.084;2022-07-05T07:51:23;100216.34;;;31.57;41.77
68616;BME280;57261;47.504;19.084;2022-07-05T07:54:23;100214.53;;;31.58;41.89
68616;BME280;57261;47.504;19.084;2022-07-05T07:57:24;100208.50;;;31.56;41.45
68616;BME280;57261;47.504;19.084;2022-07-05T08:00:24;100203.00;;;31.57;41.39
68616;BME280;57261;47.504;19.084;2022-07-05T08:03:25;100202.19;;;31.57;42.01
68616;BME280;57261;47.504;19.084;2022-07-05T08:06:25;100213.00;;;31.55;42.33
68616;BME280;57261;47.504;19.084;2022-07-05T08:09:27;100208.50;;;31.56;41.90
68616;BME280;57261;47.504;19.084;2022-07-05T08:12:30;100206.53;;;31.58;42.18
68616;BME280;57261;47.504;19.084;2022-07-05T08:15:30;100197.50;;;31.59;42.39
68616;BME280;57261;47.504;19.084;2022-07-05T08:18:32;100203.31;;;31.62;42.35
68616;BME280;57261;47.504;19.084;2022-07-05T08:21:51;100196.97;;;31.63;42.36
68616;BME280;57261;47.504;19.084;2022-07-05T08:24:51;100205.13;;;31.70;42.73
68616;BME280;57261;47.504;19.084;2022-07-05T08:27:55;100200.97;;;31.75;41.99
68616;BME280;57261;47.504;19.084;2022-07-05T08:30:56;100205.25;;;31.76;42.26
68616;BME280;57261;47.504;19.084;2022-07-05T08:34:00;100204.13;;;31.79;42.32
68616;BME280;57261;47.504;19.084;2022-07-05T08:37:01;100209.09;;;31.82;42.20
68616;BME280;57261;47.504;19.084;2022-07-05T08:40:05;100212.91;;;31.87;42.57
68616;BME280;57261;47.504;19.084;2022-07-05T08:43:07;100210.38;;;31.86;42.18
68616;BME280;57261;47.504;19.084;2022-07-05T08:46:08;100216.69;;;31.93;41.60
68616;BME280;57261;47.504;19.084;2022-07-05T08:49:13;100223.38;;;31.97;41.78
68616;BME280;57261;47.504;19.084;2022-07-05T08:52:15;100221.84;;;32.02;41.54
68616;BME280;57261;47.504;19.084;2022-07-05T08:55:15;100225.66;;;32.08;41.95
68616;BME280;57261;47.504;19.084;2022-07-05T08:58:19;100224.97;;;32.14;42.48
68616;BME280;57261;47.504;19.084;2022-07-05T09:01:20;100221.13;;;32.16;41.71
68616;BME280;57261;47.504;19.084;2022-07-05T09:04:22;100217.28;;;32.19;41.76
68616;BME280;57261;47.504;19.084;2022-07-05T09:07:26;100216.25;;;32.20;41.36
68616;BME280;57261;47.504;19.084;2022-07-05T09:10:30;100211.94;;;32.19;41.45
68616;BME280;57261;47.504;19.084;2022-07-05T09:13:35;100212.78;;;32.19;41.54
68616;BME280;57261;47.504;19.084;2022-07-05T09:16:36;100215.59;;;32.26;41.55
68616;BME280;57261;47.504;19.084;2022-07-05T09:19:36;100223.13;;;32.22;41.76
68616;BME280;57261;47.504;19.084;2022-07-05T09:22:44;100227.75;;;32.28;41.31
68616;BME280;57261;47.504;19.084;2022-07-05T09:25:45;100232.09;;;32.29;41.54
68616;BME280;57261;47.504;19.084;2022-07-05T09:28:54;100227.56;;;32.29;42.03
68616;BME280;57261;47.504;19.084;2022-07-05T09:31:55;100235.34;;;32.09;43.43
68616;BME280;57261;47.504;19.084;2022-07-05T09:34:55;100222.38;;;31.98;44.20
68616;BME280;57261;47.504;19.084;2022-07-05T09:37:56;100220.44;;;31.84;43.44
68616;BME280;57261;47.504;19.084;2022-07-05T09:40:58;100217.56;;;31.85;43.58
68616;BME280;57261;47.504;19.084;2022-07-05T09:44:00;100220.56;;;31.82;43.97
68616;BME280;57261;47.504;19.084;2022-07-05T09:47:08;100226.75;;;31.83;44.86
68616;BME280;57261;47.504;19.084;2022-07-05T09:50:10;100230.41;;;31.82;44.42
68616;BME280;57261;47.504;19.084;2022-07-05T09:53:12;100231.50;;;31.65;44.08
68616;BME280;57261;47.504;19.084;2022-07-05T09:56:12;100229.66;;;31.65;45.59
68616;BME280;57261;47.504;19.084;2022-07-05T09:59:18;100232.28;;;31.73;43.65
68616;BME280;57261;47.504;19.084;2022-07-05T10:05:38;100265.81;;;31.68;44.06
68616;BME280;57261;47.504;19.084;2022-07-05T10:08:40;100311.31;;;31.66;43.50
68616;BME280;57261;47.504;19.084;2022-07-05T10:11:42;100318.13;;;31.21;44.79
68616;BME280;57261;47.504;19.084;2022-07-05T10:14:45;100324.97;;;31.08;45.13
68616;BME280;57261;47.504;19.084;2022-07-05T10:21:01;100288.81;;;31.05;45.18
68616;BME280;57261;47.504;19.084;2022-07-05T10:24:03;100246.19;;;31.05;45.65
68616;BME280;57261;47.504;19.084;2022-07-05T10:27:07;100258.53;;;31.06;46.45
68616;BME280;57261;47.504;19.084;2022-07-05T10:30:10;100249.00;;;30.80;47.59
68616;BME280;57261;47.504;19.084;2022-07-05T10:33:11;100290.47;;;30.90;48.77
68616;BME280;57261;47.504;19.084;2022-07-05T10:36:18;100285.44;;;30.87;49.75
68616;BME280;57261;47.504;19.084;2022-07-05T10:39:19;100300.94;;;30.84;52.34
68616;BME280;57261;47.504;19.084;2022-07-05T10:42:26;100310.03;;;30.66;53.41
68616;BME280;57261;47.504;19.084;2022-07-05T10:45:39;100315.91;;;30.36;52.75
68616;BME280;57261;47.504;19.084;2022-07-05T10:48:41;100314.81;;;30.13;52.64
68616;BME280;57261;47.504;19.084;2022-07-05T10:51:42;100321.28;;;30.10;53.64
68616;BME280;57261;47.504;19.084;2022-07-05T11:04:24;100345.00;;;29.96;53.15
68616;BME280;57261;47.504;19.084;2022-07-05T11:08:01;100342.34;;;29.96;53.41
68616;BME280;57261;47.504;19.084;2022-07-05T11:11:12;100339.75;;;29.87;51.87
68616;BME280;57261;47.504;19.084;2022-07-05T11:17:21;100352.78;;;29.72;50.56
68616;BME280;57261;47.504;19.084;2022-07-05T11:20:31;100361.91;;;29.70;51.21
68616;BME280;57261;47.504;19.084;2022-07-05T11:23:35;100363.44;;;29.55;50.89
68616;BME280;57261;47.504;19.084;2022-07-05T11:26:35;100372.56;;;29.52;50.90
68616;BME280;57261;47.504;19.084;2022-07-05T11:29:43;100362.91;;;29.51;50.80
68616;BME280;57261;47.504;19.084;2022-07-05T11:32:45;100363.50;;;29.37;50.91
68616;BME280;57261;47.504;19.084;2022-07-05T11:35:45;100354.81;;;29.35;50.34
68616;BME280;57261;47.504;19.084;2022-07-05T11:42:09;100347.13;;;29.32;53.25
68616;BME280;57261;47.504;19.084;2022-07-05T11:45:10;100334.69;;;29.33;51.96
68616;BME280;57261;47.504;19.084;2022-07-05T11:48:15;100321.19;;;29.09;53.00
68616;BME280;57261;47.504;19.084;2022-07-05T11:51:16;100326.94;;;29.39;53.72
68616;BME280;57261;47.504;19.084;2022-07-05T11:54:24;100320.66;;;29.40;52.91
68616;BME280;57261;47.504;19.084;2022-07-05T11:57:27;100314.66;;;29.38;53.32
68616;BME280;57261;47.504;19.084;2022-07-05T12:00:36;100319.56;;;29.33;53.45
68616;BME280;57261;47.504;19.084;2022-07-05T12:03:37;100310.53;;;29.26;53.69
68616;BME280;57261;47.504;19.084;2022-07-05T12:06:42;100309.56;;;29.27;53.26
68616;BME280;57261;47.504;19.084;2022-07-05T12:09:43;100307.16;;;29.17;54.19
68616;BME280;57261;47.504;19.084;2022-07-05T12:13:06;100317.16;;;29.22;54.19
68616;BME280;57261;47.504;19.084;2022-07-05T12:16:07;100311.84;;;29.22;53.93
68616;BME280;57261;47.504;19.084;2022-07-05T12:19:07;100291.97;;;29.09;54.54
68616;BME280;57261;47.504;19.084;2022-07-05T12:22:09;100286.63;;;29.26;53.77
68616;BME280;57261;47.504;19.084;2022-07-05T12:25:18;100273.59;;;29.33;54.09
68616;BME280;57261;47.504;19.084;2022-07-05T12:28:19;100278.78;;;29.34;53.46
68616;BME280;57261;47.504;19.084;2022-07-05T12:31:21;100253.00;;;29.10;52.92
68616;BME280;57261;47.504;19.084;2022-07-05T12:34:25;100291.59;;;29.21;53.37
68616;BME280;57261;47.504;19.084;2022-07-05T12:37:27;100292.22;;;29.16;53.54
68616;BME280;57261;47.504;19.084;2022-07-05T12:40:30;100285.91;;;29.17;53.85
68616;BME280;57261;47.504;19.084;2022-07-05T12:43:35;100289.09;;;29.03;53.37
68616;BME280;57261;47.504;19.084;2022-07-05T12:46:48;100285.84;;;28.91;53.59
68616;BME280;57261;47.504;19.084;2022-07-05T12:49:55;100275.31;;;28.99;53.99
68616;BME280;57261;47.504;19.084;2022-07-05T12:53:00;100277.03;;;29.08;54.43
68616;BME280;57261;47.504;19.084;2022-07-05T12:59:24;100281.22;;;28.93;53.92
68616;BME280;57261;47.504;19.084;2022-07-05T13:02:46;100276.81;;;29.02;53.58
68616;BME280;57261;47.504;19.084;2022-07-05T13:06:00;100256.47;;;28.93;54.07
68616;BME280;57261;47.504;19.084;2022-07-05T13:09:02;100258.53;;;28.99;54.15
68616;BME280;57261;47.504;19.084;2022-07-05T13:15:14;100249.94;;;29.05;54.11
68616;BME280;57261;47.504;19.084;2022-07-05T13:18:25;100201.06;;;28.90;53.35
68616;BME280;57261;47.504;19.084;2022-07-05T13:21:27;100235.06;;;29.12;53.89
68616;BME280;57261;47.504;19.084;2022-07-05T13:24:27;100231.06;;;29.08;53.17
68616;BME280;57261;47.504;19.084;2022-07-05T13:27:31;100218.00;;;29.14;54.19
68616;BME280;57261;47.504;19.084;2022-07-05T13:30:31;100225.66;;;29.17;52.71
68616;BME280;57261;47.504;19.084;2022-07-05T13:33:34;100222.63;;;29.12;53.54
68616;BME280;57261;47.504;19.084;2022-07-05T13:36:35;100233.09;;;29.14;53.37
68616;BME280;57261;47.504;19.084;2022-07-05T13:39:36;100226.88;;;29.05;52.15
68616;BME280;57261;47.504;19.084;2022-07-05T13:42:40;100239.31;;;29.05;53.49
68616;BME280;57261;47.504;19.084;2022-07-05T13:45:40;100234.53;;;29.08;53.05
68616;BME280;57261;47.504;19.084;2022-07-05T13:48:42;100233.41;;;29.11;53.17
68616;BME280;57261;47.504;19.084;2022-07-05T13:51:44;100234.59;;;29.16;52.96
68616;BME280;57261;47.504;19.084;2022-07-05T13:54:44;100230.66;;;29.20;52.74
68616;BME280;57261;47.504;19.084;2022-07-05T13:57:45;100225.66;;;29.17;54.01
68616;BME280;57261;47.504;19.084;2022-07-05T14:00:46;100222.53;;;29.21;53.60
68616;BME280;57261;47.504;19.084;2022-07-05T14:03:46;100214.66;;;29.12;53.46
68616;BME280;57261;47.504;19.084;2022-07-05T14:06:48;100216.97;;;29.07;53.18
68616;BME280;57261;47.504;19.084;2022-07-05T14:09:50;100214.66;;;29.12;53.93
68616;BME280;57261;47.504;19.084;2022-07-05T14:12:50;100218.88;;;29.22;53.17
68616;BME280;57261;47.504;19.084;2022-07-05T14:15:51;100197.94;;;29.19;53.50
68616;BME280;57261;47.504;19.084;2022-07-05T14:18:52;100186.03;;;29.23;51.68
68616;BME280;57261;47.504;19.084;2022-07-05T14:21:53;100197.53;;;29.32;53.87
68616;BME280;57261;47.504;19.084;2022-07-05T14:24:56;100188.53;;;29.25;52.32
68616;BME280;57261;47.504;19.084;2022-07-05T14:27:57;100159.78;;;29.20;52.76
68616;BME280;57261;47.504;19.084;2022-07-05T14:30:57;100189.19;;;29.52;53.12
68616;BME280;57261;47.504;19.084;2022-07-05T14:33:58;100181.75;;;29.56;51.69
68616;BME280;57261;47.504;19.084;2022-07-05T14:36:59;100178.59;;;29.60;52.76
68616;BME280;57261;47.504;19.084;2022-07-05T14:39:59;100170.34;;;29.63;52.68
68616;BME280;57261;47.504;19.084;2022-07-05T14:43:01;100171.16;;;29.64;53.40
68616;BME280;57261;47.504;19.084;2022-07-05T14:46:03;100152.50;;;29.56;54.17
68616;BME280;57261;47.504;19.084;2022-07-05T14:49:05;100160.69;;;29.62;53.46
68616;BME280;57261;47.504;19.084;2022-07-05T14:52:05;100163.34;;;29.62;52.99
68616;BME280;57261;47.504;19.084;2022-07-05T14:55:07;100163.53;;;29.69;53.43
68616;BME280;57261;47.504;19.084;2022-07-05T14:58:07;100167.03;;;29.69;52.67
68616;BME280;57261;47.504;19.084;2022-07-05T15:01:08;100163.88;;;29.66;51.84
68616;BME280;57261;47.504;19.084;2022-07-05T15:04:09;100167.00;;;29.61;52.16
68616;BME280;57261;47.504;19.084;2022-07-05T15:07:09;100167.00;;;29.61;52.97
68616;BME280;57261;47.504;19.084;2022-07-05T15:10:10;100157.19;;;29.62;54.51
68616;BME280;57261;47.504;19.084;2022-07-05T15:13:12;100165.50;;;29.59;52.69
68616;BME280;57261;47.504;19.084;2022-07-05T15:16:12;100155.34;;;29.54;53.28
68616;BME280;57261;47.504;19.084;2022-07-05T15:19:12;100162.84;;;29.59;54.56
68616;BME280;57261;47.504;19.084;2022-07-05T15:22:13;100159.53;;;29.65;53.63
68616;BME280;57261;47.504;19.084;2022-07-05T15:25:15;100162.53;;;29.70;52.68
68616;BME280;57261;47.504;19.084;2022-07-05T15:28:15;100145.38;;;29.56;52.02
68616;BME280;57261;47.504;19.084;2022-07-05T15:31:16;100163.38;;;29.70;52.10
68616;BME280;57261;47.504;19.084;2022-07-05T15:34:16;100156.06;;;29.72;52.12
68616;BME280;57261;47.504;19.084;2022-07-05T15:37:17;100153.91;;;29.68;53.77
68616;BME280;57261;47.504;19.084;2022-07-05T15:40:17;100143.59;;;29.65;51.87
68616;BME280;57261;47.504;19.084;2022-07-05T15:43:18;100151.38;;;29.66;52.14
68616;BME280;57261;47.504;19.084;2022-07-05T15:46:20;100145.72;;;29.61;52.04
68616;BME280;57261;47.504;19.084;2022-07-05T15:49:20;100143.88;;;29.54;52.24
68616;BME280;57261;47.504;19.084;2022-07-05T15:52:21;100139.72;;;29.59;52.00
68616;BME280;57261;47.504;19.084;2022-07-05T15:55:22;100149.22;;;29.62;52.13
68616;BME280;57261;47.504;19.084;2022-07-05T15:58:23;100154.00;;;29.58;52.08
68616;BME280;57261;47.504;19.084;2022-07-05T16:01:24;100147.34;;;29.54;52.04
68616;BME280;57261;47.504;19.084;2022-07-05T16:04:25;100142.25;;;29.61;51.62
68616;BME280;57261;47.504;19.084;2022-07-05T16:07:29;100145.53;;;29.55;51.95
68616;BME280;57261;47.504;19.084;2022-07-05T16:10:29;100144.41;;;29.57;51.22